Time;durP1;ratioP1;P1;durP2;ratioP2;P2;SDS_P1;SDS_P2;PMS_P1;PMS_P2;Temp;Humidity;BMP_temperature;BMP_pressure;BME280_temperature;BME280_humidity;BME280_pressure;Samples;Min_cycle;Max_cycle;Signal;HPM_P1;HPM_P2
2023/01/09 00:01:15;;;;;;;;;;;;;;;;;;5094244;28;20368;-76
2023/01/09 00:03:41;;;;;;;;;;;;;;;;;;5094219;28;20370;-76
2023/01/09 00:06:07;;;;;;;;;;;;;;;;;;5094527;28;20437;-75
2023/01/09 00:08:33;;;;;;;;;;;;;;;;;;5094164;28;19908;-77
2023/01/09 00:10:59;;;;;;;;;;;;;;;;;;5094147;28;19961;-76
2023/01/09 00:13:25;;;;;;;;;;;;;;;;;;5092799;28;19999;-76
2023/01/09 00:15:51;;;;;;;;;;;;;;;;;;5094323;28;20011;-76
2023/01/09 00:18:17;;;;;;;;;;;;;;;;;;5094009;28;19951;-76
2023/01/09 00:20:43;;;;;;;;;;;;;;;;;;5093949;28;19908;-75
2023/01/09 00:23:09;;;;;;;;;;;;;;;;;;5094004;28;19912;-75
2023/01/09 00:25:35;;;;;;;;;;;;;;;;;;5094151;28;19924;-76
2023/01/09 00:28:01;;;;;;;;;;;;;;;;;;5094025;28;19912;-76
2023/01/09 00:30:27;;;;;;;;;;;;;;;;;;5093914;28;19908;-76
2023/01/09 00:32:53;;;;;;;;;;;;;;;;;;5092519;28;19955;-76
2023/01/09 00:35:19;;;;;;;;;;;;;;;;;;5093540;28;19920;-76
2023/01/09 00:37:45;;;;;;;;;;;;;;;;;;5094218;28;19908;-76
2023/01/09 00:40:11;;;;;;;;;;;;;;;;;;5093759;28;19919;-76
2023/01/09 00:42:37;;;;;;;;;;;;;;;;;;5093940;28;19914;-76
2023/01/09 00:45:03;;;;;;;;;;;;;;;;;;5093776;28;20288;-76
2023/01/09 00:47:29;;;;;;;;;;;;;;;;;;5093775;28;19912;-75
2023/01/09 00:49:54;;;;;;;;;;;;;;;;;;5093647;28;19915;-76
2023/01/09 00:52:20;;;;;;;;;;;;;;;;;;5094027;28;19915;-76
2023/01/09 00:54:46;;;;;;;;;;;;;;;;;;5093494;28;19908;-76
2023/01/09 00:57:12;;;;;;;;;;;;;;;;;;5095577;28;19908;-76
2023/01/09 00:59:38;;;;;;;;;;;;;;;;;;5097689;28;19961;-76
2023/01/09 01:02:04;;;;;;;;;;;;;;;;;;5097672;28;19916;-75
2023/01/09 01:09:59;;;;;;;;;;;;;;;;;;5097247;28;19962;-76
2023/01/09 01:12:25;;;;;;;;;;;;;;;;;;5097875;28;19908;-76
2023/01/09 01:14:51;;;;;;;;;;;;;;;;;;5097312;28;19972;-75
2023/01/09 01:17:17;;;;;;;;;;;;;;;;;;5097502;28;19912;-77
2023/01/09 01:19:43;;;;;;;;;;;;;;;;;;5097429;28;19908;-76
2023/01/09 01:22:09;;;;;;;;;;;;;;;;;;5097303;28;20280;-75
2023/01/09 01:24:35;;;;;;;;;;;;;;;;;;5097259;28;20399;-76
2023/01/09 01:27:01;;;;;;;;;;;;;;;;;;5097237;28;19919;-75
2023/01/09 01:29:27;;;;;;;;;;;;;;;;;;5097230;28;19908;-76
2023/01/09 01:31:53;;;;;;;;;;;;;;;;;;5097446;28;19958;-74
2023/01/09 01:34:18;;;;;;;;;;;;;;;;;;5096987;28;19909;-75
2023/01/09 01:36:44;;;;;;;;;;;;;;;;;;5097047;28;19912;-76
2023/01/09 01:39:10;;;;;;;;;;;;;;;;;;5097246;28;19973;-76
2023/01/09 01:41:36;;;;;;;;;;;;;;;;;;5097314;28;20281;-77
2023/01/09 01:44:02;;;;;;;;;;;;;;;;;;5096876;28;20360;-76
2023/01/09 01:46:28;;;;;;;;;;;;;;;;;;5096947;28;19962;-76
2023/01/09 01:48:54;;;;;;;;;;;;;;;;;;5096797;28;19916;-76
2023/01/09 01:51:20;;;;;;;;;;;;;;;;;;5096714;28;19908;-75
2023/01/09 01:53:46;;;;;;;;;;;;;;;;;;5097012;28;19922;-76
2023/01/09 01:56:12;;;;;;;;;;;;;;;;;;5096577;28;20379;-76
2023/01/09 01:58:38;;;;;;;;;;;;;;;;;;5096668;28;19954;-75
2023/01/09 02:01:04;;;;;;;;;;;;;;;;;;5096562;28;19909;-76
2023/01/09 02:03:30;;;;;;;;;;;;;;;;;;5096536;28;19908;-77
2023/01/09 02:05:56;;;;;;;;;;;;;;;;;;5096733;28;19914;-76
2023/01/09 02:08:22;;;;;;;;;;;;;;;;;;5095967;28;19940;-76
2023/01/09 02:10:48;;;;;;;;;;;;;;;;;;5096367;28;19908;-77
2023/01/09 02:13:14;;;;;;;;;;;;;;;;;;5096308;28;19912;-76
2023/01/09 02:15:39;;;;;;;;;;;;;;;;;;5094910;28;19912;-76
2023/01/09 02:18:05;;;;;;;;;;;;;;;;;;5096305;28;19962;-76
2023/01/09 02:20:31;;;;;;;;;;;;;;;;;;5094873;28;19912;-76
2023/01/09 02:22:57;;;;;;;;;;;;;;;;;;5096076;28;19953;-76
2023/01/09 02:25:23;;;;;;;;;;;;;;;;;;5096085;28;19916;-76
2023/01/09 02:27:49;;;;;;;;;;;;;;;;;;5096264;28;19916;-75
2023/01/09 02:30:15;;;;;;;;;;;;;;;;;;5096133;28;19908;-76
2023/01/09 02:32:41;;;;;;;;;;;;;;;;;;5096191;28;19912;-76
2023/01/09 02:35:07;;;;;;;;;;;;;;;;;;5095592;28;19927;-75
2023/01/09 02:37:33;;;;;;;;;;;;;;;;;;5095868;28;19916;-76
2023/01/09 02:39:59;;;;;;;;;;;;;;;;;;5095983;28;19909;-76
2023/01/09 02:42:26;;;;;;;;;;;;;;;;;;5095764;28;20006;-76
2023/01/09 02:44:51;;;;;;;;;;;;;;;;;;5095755;28;20006;-77
2023/01/09 02:47:18;;;;;;;;;;;;;;;;;;5096114;28;19951;-76
2023/01/09 02:49:44;;;;;;;;;;;;;;;;;;5095792;28;19908;-75
2023/01/09 02:52:10;;;;;;;;;;;;;;;;;;5095577;28;19908;-76
2023/01/09 02:54:36;;;;;;;;;;;;;;;;;;5095536;28;20365;-76
2023/01/09 02:57:02;;;;;;;;;;;;;;;;;;5095431;28;19917;-77
2023/01/09 02:59:28;;;;;;;;;;;;;;;;;;5095803;28;19912;-76
2023/01/09 03:01:54;;;;;;;;;;;;;;;;;;5095333;28;19990;-76
2023/01/09 03:04:20;;;;;;;;;;;;;;;;;;5095385;28;19989;-76
2023/01/09 03:06:46;;;;;;;;;;;;;;;;;;5095216;28;19908;-77
2023/01/09 03:09:12;;;;;;;;;;;;;;;;;;5095656;28;19918;-77
2023/01/09 03:11:38;;;;;;;;;;;;;;;;;;5095185;28;19951;-75
2023/01/09 03:14:03;;;;;;;;;;;;;;;;;;5095257;28;19908;-77
2023/01/09 03:16:29;;;;;;;;;;;;;;;;;;5095018;28;20022;-76
2023/01/09 03:18:55;;;;;;;;;;;;;;;;;;5094538;28;20371;-76
2023/01/09 03:21:21;;;;;;;;;;;;;;;;;;5095173;28;19923;-77
2023/01/09 03:23:47;;;;;;;;;;;;;;;;;;5095110;28;19908;-76
2023/01/09 03:26:13;;;;;;;;;;;;;;;;;;5093653;28;19909;-77
2023/01/09 03:28:39;;;;;;;;;;;;;;;;;;5094882;28;19958;-76
2023/01/09 03:31:05;;;;;;;;;;;;;;;;;;5093495;28;19914;-77
2023/01/09 03:33:31;;;;;;;;;;;;;;;;;;5095084;28;19912;-76
2023/01/09 03:35:57;;;;;;;;;;;;;;;;;;5094441;28;19955;-76
2023/01/09 03:38:23;;;;;;;;;;;;;;;;;;5094672;28;20389;-76
2023/01/09 03:40:50;;;;;;;;;;;;;;;;;;5094610;28;20015;-76
2023/01/09 03:43:16;;;;;;;;;;;;;;;;;;5094602;28;19908;-76
2023/01/09 03:45:42;;;;;;;;;;;;;;;;;;5094684;28;20007;-77
2023/01/09 03:48:07;;;;;;;;;;;;;;;;;;5094526;28;19957;-76
2023/01/09 03:50:33;;;;;;;;;;;;;;;;;;5094491;28;19963;-76
2023/01/09 03:52:59;;;;;;;;;;;;;;;;;;5094354;28;19912;-76
2023/01/09 03:55:25;;;;;;;;;;;;;;;;;;5094451;28;19977;-76
2023/01/09 03:57:51;;;;;;;;;;;;;;;;;;5094511;28;20332;-76
2023/01/09 04:00:17;;;;;;;;;;;;;;;;;;5094286;28;19999;-76
2023/01/09 04:02:43;;;;;;;;;;;;;;;;;;5094269;28;19958;-77
2023/01/09 04:05:09;;;;;;;;;;;;;;;;;;5094209;28;19915;-77
2023/01/09 04:07:35;;;;;;;;;;;;;;;;;;5094181;28;19916;-76
2023/01/09 04:10:01;;;;;;;;;;;;;;;;;;5094327;28;19912;-76
2023/01/09 04:12:27;;;;;;;;;;;;;;;;;;5094129;28;19914;-76
2023/01/09 04:14:53;;;;;;;;;;;;;;;;;;5094288;28;19951;-76
2023/01/09 04:17:19;;;;;;;;;;;;;;;;;;5094059;28;20284;-76
2023/01/09 04:19:45;;;;;;;;;;;;;;;;;;5093996;28;19999;-76
2023/01/09 04:22:10;;;;;;;;;;;;;;;;;;5094082;28;19950;-77
2023/01/09 04:24:36;;;;;;;;;;;;;;;;;;5093918;28;19908;-77
2023/01/09 04:27:02;;;;;;;;;;;;;;;;;;5092636;28;20280;-76
2023/01/09 04:29:28;;;;;;;;;;;;;;;;;;5093864;28;20453;-76
2023/01/09 04:31:54;;;;;;;;;;;;;;;;;;5092369;28;20014;-76
2023/01/09 04:34:24;;;;;;;;;;;;;;;;;;5092236;28;19912;-76
2023/01/09 04:36:50;;;;;;;;;;;;;;;;;;5092187;28;19912;-76
2023/01/09 04:39:16;;;;;;;;;;;;;;;;;;5093988;28;19908;-76
2023/01/09 04:41:48;;;;;;;;;;;;;;;;;;5093754;28;19909;-77
2023/01/09 04:44:14;;;;;;;;;;;;;;;;;;5093833;28;20360;-77
2023/01/09 04:46:39;;;;;;;;;;;;;;;;;;5093722;28;19915;-77
2023/01/09 04:49:05;;;;;;;;;;;;;;;;;;5094130;28;19908;-76
2023/01/09 04:51:31;;;;;;;;;;;;;;;;;;5093666;28;19918;-76
2023/01/09 04:53:57;;;;;;;;;;;;;;;;;;5094169;28;19934;-77
2023/01/09 04:56:23;;;;;;;;;;;;;;;;;;5093521;28;19912;-76
2023/01/09 04:58:49;;;;;;;;;;;;;;;;;;5092304;28;19908;-76
2023/01/09 05:01:15;;;;;;;;;;;;;;;;;;5093595;28;20399;-76
2023/01/09 05:03:41;;;;;;;;;;;;;;;;;;5093689;28;19919;-76
2023/01/09 05:06:07;;;;;;;;;;;;;;;;;;5093497;28;19908;-76
2023/01/09 05:08:33;;;;;;;;;;;;;;;;;;5093543;28;20261;-76
2023/01/09 05:10:59;;;;;;;;;;;;;;;;;;5093469;28;20360;-76
2023/01/09 05:13:25;;;;;;;;;;;;;;;;;;5093482;28;19908;-76
2023/01/09 05:15:51;;;;;;;;;;;;;;;;;;5093422;28;19919;-77
2023/01/09 05:18:17;;;;;;;;;;;;;;;;;;5093433;28;20013;-75
2023/01/09 05:20:43;;;;;;;;;;;;;;;;;;5093460;28;19961;-77
2023/01/09 05:23:09;;;;;;;;;;;;;;;;;;5093417;28;19910;-77
2023/01/09 05:25:34;;;;;;;;;;;;;;;;;;5093519;28;19915;-77
2023/01/09 05:28:00;;;;;;;;;;;;;;;;;;5093331;28;19915;-77
2023/01/09 05:30:26;;;;;;;;;;;;;;;;;;5093333;28;19908;-75
2023/01/09 05:32:52;;;;;;;;;;;;;;;;;;5093278;28;19912;-76
2023/01/09 05:35:19;;;;;;;;;;;;;;;;;;5092963;28;19965;-77
2023/01/09 05:37:44;;;;;;;;;;;;;;;;;;5093348;28;19934;-77
2023/01/09 05:40:10;;;;;;;;;;;;;;;;;;5093389;28;19912;-76
2023/01/09 05:42:36;;;;;;;;;;;;;;;;;;5093874;28;19965;-76
2023/01/09 05:45:02;;;;;;;;;;;;;;;;;;5097419;28;19908;-76
2023/01/09 05:47:28;;;;;;;;;;;;;;;;;;5096821;28;19919;-77
2023/01/09 05:49:57;;;;;;;;;;;;;;;;;;5096997;28;19908;-76
2023/01/09 05:52:23;;;;;;;;;;;;;;;;;;5096756;28;19908;-76
2023/01/09 05:54:49;;;;;;;;;;;;;;;;;;5096553;28;19914;-76
2023/01/09 05:57:15;;;;;;;;;;;;;;;;;;5096840;28;19963;-77
2023/01/09 05:59:40;;;;;;;;;;;;;;;;;;5096601;28;19908;-76
2023/01/09 06:02:06;;;;;;;;;;;;;;;;;;5095280;28;20284;-76
2023/01/09 06:04:32;;;;;;;;;;;;;;;;;;5096472;28;19908;-76
2023/01/09 06:06:58;;;;;;;;;;;;;;;;;;5096389;28;20057;-76
2023/01/09 06:09:25;;;;;;;;;;;;;;;;;;5096585;28;19908;-76
2023/01/09 06:11:53;;;;;;;;;;;;;;;;;;5096673;28;19916;-76
2023/01/09 06:14:19;;;;;;;;;;;;;;;;;;5095025;28;20357;-76
2023/01/09 06:16:45;;;;;;;;;;;;;;;;;;5096220;28;19919;-77
2023/01/09 06:19:11;;;;;;;;;;;;;;;;;;5094920;28;19908;-75
2023/01/09 06:21:37;;;;;;;;;;;;;;;;;;5094698;28;19909;-77
2023/01/09 06:24:03;;;;;;;;;;;;;;;;;;5096088;28;19908;-76
2023/01/09 06:26:29;;;;;;;;;;;;;;;;;;5096523;28;19908;-76
2023/01/09 06:28:55;;;;;;;;;;;;;;;;;;5096057;28;19909;-77
2023/01/09 06:31:21;;;;;;;;;;;;;;;;;;5095962;28;20322;-76
2023/01/09 06:33:46;;;;;;;;;;;;;;;;;;5096097;28;19908;-77
2023/01/09 06:36:12;;;;;;;;;;;;;;;;;;5095952;28;19928;-76
2023/01/09 06:38:38;;;;;;;;;;;;;;;;;;5095867;28;19915;-77
2023/01/09 06:41:04;;;;;;;;;;;;;;;;;;5095908;28;19908;-77
2023/01/09 06:43:30;;;;;;;;;;;;;;;;;;5095738;28;19915;-76
2023/01/09 06:45:56;;;;;;;;;;;;;;;;;;5095767;28;19917;-76
2023/01/09 06:48:23;;;;;;;;;;;;;;;;;;5095579;28;19935;-77
2023/01/09 06:50:49;;;;;;;;;;;;;;;;;;5095329;28;19912;-76
2023/01/09 06:53:15;;;;;;;;;;;;;;;;;;5095550;28;20022;-76
2023/01/09 06:55:41;;;;;;;;;;;;;;;;;;5095245;28;19962;-77
2023/01/09 06:58:07;;;;;;;;;;;;;;;;;;5095445;28;19908;-76
2023/01/09 07:00:33;;;;;;;;;;;;;;;;;;5095409;28;19915;-77
2023/01/09 07:02:59;;;;;;;;;;;;;;;;;;5095414;28;19915;-76
2023/01/09 07:05:25;;;;;;;;;;;;;;;;;;5095418;28;19915;-75
2023/01/09 07:07:51;;;;;;;;;;;;;;;;;;5095275;28;19908;-76
2023/01/09 07:10:17;;;;;;;;;;;;;;;;;;5095229;28;20284;-76
2023/01/09 07:12:43;;;;;;;;;;;;;;;;;;5095655;28;20387;-76
2023/01/09 07:15:09;;;;;;;;;;;;;;;;;;5095100;28;19912;-76
2023/01/09 07:17:35;;;;;;;;;;;;;;;;;;5095192;28;20329;-75
2023/01/09 07:20:00;;;;;;;;;;;;;;;;;;5095095;28;19915;-77
2023/01/09 07:22:26;;;;;;;;;;;;;;;;;;5095025;28;19908;-77
2023/01/09 07:24:52;;;;;;;;;;;;;;;;;;5095186;28;19908;-76
2023/01/09 07:27:18;;;;;;;;;;;;;;;;;;5093598;28;19915;-76
2023/01/09 07:29:44;;;;;;;;;;;;;;;;;;5095128;28;19908;-76
2023/01/09 07:32:10;;;;;;;;;;;;;;;;;;5094788;28;20395;-75
2023/01/09 07:34:36;;;;;;;;;;;;;;;;;;5094951;28;19974;-76
2023/01/09 07:37:02;;;;;;;;;;;;;;;;;;5094941;28;19916;-76
2023/01/09 07:39:28;;;;;;;;;;;;;;;;;;5094676;28;19919;-77
2023/01/09 07:41:54;;;;;;;;;;;;;;;;;;5094595;28;19916;-76
2023/01/09 07:44:20;;;;;;;;;;;;;;;;;;5094606;28;19908;-77
2023/01/09 07:46:46;;;;;;;;;;;;;;;;;;5094542;28;19908;-77
2023/01/09 07:49:11;;;;;;;;;;;;;;;;;;5094666;28;20397;-77
2023/01/09 07:51:42;;;;;;;;;;;;;;;;;;5094468;28;20449;-76
2023/01/09 07:54:08;;;;;;;;;;;;;;;;;;5094546;28;20383;-76
2023/01/09 07:56:33;;;;;;;;;;;;;;;;;;5094728;28;19916;-77
2023/01/09 07:58:59;;;;;;;;;;;;;;;;;;5094322;28;19908;-76
2023/01/09 08:01:25;;;;;;;;;;;;;;;;;;5094394;28;20070;-76
2023/01/09 08:03:51;;;;;;;;;;;;;;;;;;5094278;28;19956;-76
2023/01/09 08:06:17;;;;;;;;;;;;;;;;;;5093795;28;19908;-76
2023/01/09 08:08:43;;;;;;;;;;;;;;;;;;5094151;28;19995;-76
2023/01/09 08:11:09;;;;;;;;;;;;;;;;;;5094146;28;19943;-76
2023/01/09 08:13:35;;;;;;;;;;;;;;;;;;5094128;28;19908;-76
2023/01/09 08:16:01;;;;;;;;;;;;;;;;;;5094003;28;19912;-77
2023/01/09 08:18:27;;;;;;;;;;;;;;;;;;5094040;28;20288;-76
2023/01/09 08:20:53;;;;;;;;;;;;;;;;;;5094005;28;20383;-76
2023/01/09 08:23:19;;;;;;;;;;;;;;;;;;5094081;28;19908;-76
2023/01/09 08:25:45;;;;;;;;;;;;;;;;;;5094383;28;19908;-76
2023/01/09 08:28:11;;;;;;;;;;;;;;;;;;5093921;28;19947;-77
2023/01/09 08:30:37;;;;;;;;;;;;;;;;;;5094193;28;19930;-76
2023/01/09 08:33:03;;;;;;;;;;;;;;;;;;5094018;28;20400;-76
2023/01/09 08:35:29;;;;;;;;;;;;;;;;;;5093528;28;19970;-77
2023/01/09 08:37:55;;;;;;;;;;;;;;;;;;5094041;28;19931;-76
2023/01/09 08:40:21;;;;;;;;;;;;;;;;;;5094062;28;19914;-77
2023/01/09 08:48:16;;;;;;;;;;;;;;;;;;5093517;28;19974;-77
2023/01/09 08:50:42;;;;;;;;;;;;;;;;;;5092393;28;20380;-76
2023/01/09 08:53:08;;;;;;;;;;;;;;;;;;5093628;28;19909;-76
2023/01/09 08:55:34;;;;;;;;;;;;;;;;;;5093578;28;19912;-77
2023/01/09 08:58:00;;;;;;;;;;;;;;;;;;5093630;28;19908;-77
2023/01/09 09:00:26;;;;;;;;;;;;;;;;;;5093730;28;20006;-76
2023/01/09 09:02:52;;;;;;;;;;;;;;;;;;5093628;28;19919;-77
2023/01/09 09:05:18;;;;;;;;;;;;;;;;;;5093695;28;19915;-77
2023/01/09 09:07:43;;;;;;;;;;;;;;;;;;5093651;28;19908;-77
2023/01/09 09:10:09;;;;;;;;;;;;;;;;;;5092281;28;19908;-77
2023/01/09 09:12:35;;;;;;;;;;;;;;;;;;5093564;28;19908;-77
2023/01/09 09:17:46;;;;;;;;;;;;;;;;;;5094281;28;20399;-77
2023/01/09 09:20:12;;;;;;;;;;;;;;;;;;5097421;28;19912;-76
2023/01/09 09:22:38;;;;;;;;;;;;;;;;;;5097354;28;19908;-76
2023/01/09 09:25:04;;;;;;;;;;;;;;;;;;5097368;28;19947;-78
2023/01/09 09:27:30;;;;;;;;;;;;;;;;;;5097299;28;19908;-77
2023/01/09 09:29:56;;;;;;;;;;;;;;;;;;5097506;28;19908;-77
2023/01/09 09:32:22;;;;;;;;;;;;;;;;;;5097168;28;19919;-77
2023/01/09 09:34:47;;;;;;;;;;;;;;;;;;5096963;28;19920;-78
2023/01/09 09:37:13;;;;;;;;;;;;;;;;;;5097174;28;19912;-77
2023/01/09 09:39:39;;;;;;;;;;;;;;;;;;5095811;28;19947;-78
2023/01/09 09:44:52;;;;;;;;;;;;;;;;;;5096672;28;19915;-77
2023/01/09 09:47:18;;;;;;;;;;;;;;;;;;5096881;28;20013;-77
2023/01/09 09:49:44;;;;;;;;;;;;;;;;;;5095593;28;20372;-77
2023/01/09 09:52:10;;;;;;;;;;;;;;;;;;5096991;28;19908;-76
2023/01/09 09:54:36;;;;;;;;;;;;;;;;;;5097232;28;19915;-77
2023/01/09 09:57:02;;;;;;;;;;;;;;;;;;5095312;28;19912;-76
2023/01/09 09:59:28;;;;;;;;;;;;;;;;;;5095383;28;20284;-76
2023/01/09 10:01:55;;;;;;;;;;;;;;;;;;5096887;28;20395;-76
2023/01/09 10:04:20;;;;;;;;;;;;;;;;;;5096881;28;19908;-77
2023/01/09 10:06:46;;;;;;;;;;;;;;;;;;5096667;28;20006;-77
2023/01/09 10:09:12;;;;;;;;;;;;;;;;;;5096528;28;20425;-78
2023/01/09 10:11:38;;;;;;;;;;;;;;;;;;5096426;28;19908;-77
2023/01/09 10:14:04;;;;;;;;;;;;;;;;;;5096412;28;19995;-77
2023/01/09 10:16:30;;;;;;;;;;;;;;;;;;5096275;28;19912;-77
2023/01/09 10:18:56;;;;;;;;;;;;;;;;;;5096263;28;20361;-77
2023/01/09 10:21:22;;;;;;;;;;;;;;;;;;5096635;28;20010;-77
2023/01/09 10:23:48;;;;;;;;;;;;;;;;;;5096534;28;20004;-78
2023/01/09 10:26:14;;;;;;;;;;;;;;;;;;5096434;28;19915;-77
2023/01/09 10:28:40;;;;;;;;;;;;;;;;;;5094482;28;19908;-78
2023/01/09 10:31:06;;;;;;;;;;;;;;;;;;5094724;28;19908;-78
2023/01/09 10:33:32;;;;;;;;;;;;;;;;;;5096016;28;20010;-77
2023/01/09 10:35:58;;;;;;;;;;;;;;;;;;5095617;28;19955;-77
2023/01/09 10:38:23;;;;;;;;;;;;;;;;;;5095877;28;19908;-78
2023/01/09 10:40:49;;;;;;;;;;;;;;;;;;5095865;28;19908;-78
2023/01/09 10:43:15;;;;;;;;;;;;;;;;;;5095768;28;19907;-78
2023/01/09 10:45:41;;;;;;;;;;;;;;;;;;5096056;28;20330;-78
2023/01/09 10:48:07;;;;;;;;;;;;;;;;;;5095775;28;19995;-78
2023/01/09 10:50:33;;;;;;;;;;;;;;;;;;5095745;28;19951;-78
2023/01/09 10:52:59;;;;;;;;;;;;;;;;;;5095587;28;19915;-78
2023/01/09 10:55:25;;;;;;;;;;;;;;;;;;5095912;28;19913;-78
2023/01/09 10:57:51;;;;;;;;;;;;;;;;;;5095791;28;19916;-76
2023/01/09 11:00:17;;;;;;;;;;;;;;;;;;5095708;28;19915;-78
2023/01/09 11:02:43;;;;;;;;;;;;;;;;;;5095496;28;19948;-79
2023/01/09 11:05:09;;;;;;;;;;;;;;;;;;5095731;28;19973;-78
2023/01/09 11:07:34;;;;;;;;;;;;;;;;;;5095486;28;20308;-78
2023/01/09 11:10:00;;;;;;;;;;;;;;;;;;5094031;28;20364;-79
2023/01/09 11:12:26;;;;;;;;;;;;;;;;;;5095305;28;19957;-78
2023/01/09 11:14:52;;;;;;;;;;;;;;;;;;5095589;28;19912;-78
2023/01/09 11:17:18;;;;;;;;;;;;;;;;;;5095614;28;20279;-79
2023/01/09 11:19:44;;;;;;;;;;;;;;;;;;5095183;28;20261;-77
2023/01/09 11:22:10;;;;;;;;;;;;;;;;;;5095246;28;20360;-78
2023/01/09 11:24:36;;;;;;;;;;;;;;;;;;5095055;28;19954;-78
2023/01/09 11:27:02;;;;;;;;;;;;;;;;;;5095206;28;19919;-78
2023/01/09 11:29:28;;;;;;;;;;;;;;;;;;5095079;28;19927;-78
2023/01/09 11:31:54;;;;;;;;;;;;;;;;;;5093365;28;19912;-78
2023/01/09 11:34:20;;;;;;;;;;;;;;;;;;5094617;28;19908;-77
2023/01/09 11:36:46;;;;;;;;;;;;;;;;;;5094888;28;19948;-77
2023/01/09 11:39:12;;;;;;;;;;;;;;;;;;5094634;28;19912;-77
2023/01/09 11:41:38;;;;;;;;;;;;;;;;;;5094032;28;19908;-78
2023/01/09 11:44:04;;;;;;;;;;;;;;;;;;5094712;28;19908;-79
2023/01/09 11:46:29;;;;;;;;;;;;;;;;;;5094784;28;20299;-78
2023/01/09 11:48:55;;;;;;;;;;;;;;;;;;5095416;28;20431;-80
2023/01/09 11:51:21;;;;;;;;;;;;;;;;;;5095106;28;20096;-79
2023/01/09 11:53:47;;;;;;;;;;;;;;;;;;5095067;28;19915;-79
2023/01/09 11:56:13;;;;;;;;;;;;;;;;;;5094730;28;19913;-80
2023/01/09 11:58:39;;;;;;;;;;;;;;;;;;5094888;28;19914;-78
2023/01/09 12:01:05;;;;;;;;;;;;;;;;;;5094976;28;19908;-78
2023/01/09 12:03:31;;;;;;;;;;;;;;;;;;5094924;28;19908;-78
2023/01/09 12:05:57;;;;;;;;;;;;;;;;;;5094572;28;19915;-78
2023/01/09 12:08:23;;;;;;;;;;;;;;;;;;5094237;28;19908;-78
2023/01/09 12:10:49;;;;;;;;;;;;;;;;;;5092908;28;19908;-77
2023/01/09 12:13:15;;;;;;;;;;;;;;;;;;5094314;28;19970;-78
2023/01/09 12:15:41;;;;;;;;;;;;;;;;;;5094023;28;19911;-76
2023/01/09 12:18:07;;;;;;;;;;;;;;;;;;5094289;28;19915;-76
2023/01/09 12:20:32;;;;;;;;;;;;;;;;;;5094055;28;19916;-76
2023/01/09 12:22:58;;;;;;;;;;;;;;;;;;5093992;28;19916;-76
2023/01/09 12:25:24;;;;;;;;;;;;;;;;;;5094063;28;19915;-77
2023/01/09 12:27:50;;;;;;;;;;;;;;;;;;5094138;28;20280;-76
2023/01/09 12:30:16;;;;;;;;;;;;;;;;;;5093921;28;20364;-77
2023/01/09 12:32:42;;;;;;;;;;;;;;;;;;5092580;28;20006;-76
2023/01/09 12:35:08;;;;;;;;;;;;;;;;;;5093566;28;20300;-76
2023/01/09 12:37:34;;;;;;;;;;;;;;;;;;5094067;28;19908;-76
2023/01/09 12:40:00;;;;;;;;;;;;;;;;;;5093975;28;19914;-76
2023/01/09 12:42:26;;;;;;;;;;;;;;;;;;5093791;28;19950;-77
2023/01/09 12:44:52;;;;;;;;;;;;;;;;;;5093764;28;19919;-76
2023/01/09 12:47:18;;;;;;;;;;;;;;;;;;5094097;28;19961;-76
2023/01/09 12:49:44;;;;;;;;;;;;;;;;;;5092475;28;20004;-77
2023/01/09 12:52:10;;;;;;;;;;;;;;;;;;5095543;28;19908;-77
2023/01/09 12:54:36;;;;;;;;;;;;;;;;;;5096586;28;19916;-78
2023/01/09 12:57:02;;;;;;;;;;;;;;;;;;5098098;28;19916;-79
2023/01/09 12:59:29;;;;;;;;;;;;;;;;;;5096914;28;19919;-78
2023/01/09 13:01:55;;;;;;;;;;;;;;;;;;5098433;28;20382;-78
2023/01/09 13:04:21;;;;;;;;;;;;;;;;;;5098094;28;20004;-78
2023/01/09 13:06:47;;;;;;;;;;;;;;;;;;5097807;28;19908;-77
2023/01/09 13:09:13;;;;;;;;;;;;;;;;;;5098138;28;19953;-76
2023/01/09 13:11:39;;;;;;;;;;;;;;;;;;5097562;28;19908;-77
2023/01/09 13:14:05;;;;;;;;;;;;;;;;;;5096159;28;20314;-76
2023/01/09 13:16:31;;;;;;;;;;;;;;;;;;5097288;28;19946;-77
2023/01/09 13:18:57;;;;;;;;;;;;;;;;;;5097404;28;19911;-76
2023/01/09 13:21:23;;;;;;;;;;;;;;;;;;5097194;28;19958;-77
2023/01/09 13:23:48;;;;;;;;;;;;;;;;;;5097411;28;19953;-77
2023/01/09 13:26:14;;;;;;;;;;;;;;;;;;5097286;28;19909;-77
2023/01/09 13:28:40;;;;;;;;;;;;;;;;;;5097366;28;20012;-77
2023/01/09 13:31:07;;;;;;;;;;;;;;;;;;5097250;28;20287;-78
2023/01/09 13:33:33;;;;;;;;;;;;;;;;;;5097693;28;19974;-78
2023/01/09 13:36:01;;;;;;;;;;;;;;;;;;5097039;28;20372;-78
2023/01/09 13:38:27;;;;;;;;;;;;;;;;;;5097442;28;19908;-78
2023/01/09 13:42:34;;;;;;;;;;;;;;;;;;5097206;28;19915;-78
2023/01/09 13:43:39;;;;;;;;;;;;;;;;;;5096732;28;19915;-78
2023/01/09 13:46:05;;;;;;;;;;;;;;;;;;5097213;28;19908;-77
2023/01/09 13:48:32;;;;;;;;;;;;;;;;;;5096870;28;19991;-77
2023/01/09 13:50:58;;;;;;;;;;;;;;;;;;5096964;28;19915;-78
2023/01/09 13:53:24;;;;;;;;;;;;;;;;;;5096763;28;19998;-78
2023/01/09 13:55:50;;;;;;;;;;;;;;;;;;5096704;28;19919;-78
2023/01/09 13:58:16;;;;;;;;;;;;;;;;;;5096872;28;19908;-78
2023/01/09 14:00:41;;;;;;;;;;;;;;;;;;5096847;28;19961;-77
2023/01/09 14:03:07;;;;;;;;;;;;;;;;;;5095959;28;20289;-77
2023/01/09 14:05:33;;;;;;;;;;;;;;;;;;5096589;28;20368;-77
2023/01/09 14:08:00;;;;;;;;;;;;;;;;;;5096555;28;19908;-76
2023/01/09 14:10:25;;;;;;;;;;;;;;;;;;5096492;28;19943;-77
2023/01/09 14:12:53;;;;;;;;;;;;;;;;;;5096726;28;19909;-77
2023/01/09 14:15:18;;;;;;;;;;;;;;;;;;5096256;28;20003;-77
2023/01/09 14:17:44;;;;;;;;;;;;;;;;;;5096484;28;19997;-77
2023/01/09 14:20:10;;;;;;;;;;;;;;;;;;5096228;28;19954;-77
2023/01/09 14:22:36;;;;;;;;;;;;;;;;;;5096598;28;19908;-77
2023/01/09 14:25:02;;;;;;;;;;;;;;;;;;5096160;28;19912;-77
2023/01/09 14:27:28;;;;;;;;;;;;;;;;;;5094850;28;19918;-77
2023/01/09 14:29:54;;;;;;;;;;;;;;;;;;5096113;28;19910;-78
2023/01/09 14:32:20;;;;;;;;;;;;;;;;;;5096059;28;19908;-77
2023/01/09 14:34:46;;;;;;;;;;;;;;;;;;5095935;28;19923;-77
2023/01/09 14:37:12;;;;;;;;;;;;;;;;;;5095891;28;20002;-78
2023/01/09 14:39:38;;;;;;;;;;;;;;;;;;5095878;28;19943;-77
2023/01/09 14:42:11;;;;;;;;;;;;;;;;;;5096240;28;19908;-77
2023/01/09 14:44:36;;;;;;;;;;;;;;;;;;5096091;28;19944;-77
2023/01/09 14:47:02;;;;;;;;;;;;;;;;;;5095814;28;20282;-77
2023/01/09 14:49:28;;;;;;;;;;;;;;;;;;5095761;28;19912;-76
2023/01/09 14:51:54;;;;;;;;;;;;;;;;;;5096124;28;19908;-77
2023/01/09 14:54:20;;;;;;;;;;;;;;;;;;5095592;28;20381;-77
2023/01/09 14:56:46;;;;;;;;;;;;;;;;;;5095725;28;20356;-76
2023/01/09 14:59:12;;;;;;;;;;;;;;;;;;5095477;28;19988;-77
2023/01/09 15:01:38;;;;;;;;;;;;;;;;;;5095477;28;19908;-77
2023/01/09 15:04:04;;;;;;;;;;;;;;;;;;5094140;28;19915;-77
2023/01/09 15:06:30;;;;;;;;;;;;;;;;;;5094062;28;19999;-77
2023/01/09 15:08:56;;;;;;;;;;;;;;;;;;5095286;28;19939;-77
2023/01/09 15:11:22;;;;;;;;;;;;;;;;;;5093968;28;19912;-77
2023/01/09 15:13:48;;;;;;;;;;;;;;;;;;5095399;28;19908;-77
2023/01/09 15:16:14;;;;;;;;;;;;;;;;;;5094048;28;20329;-77
2023/01/09 15:18:40;;;;;;;;;;;;;;;;;;5095126;28;20356;-77
2023/01/09 15:21:06;;;;;;;;;;;;;;;;;;5095156;28;19909;-77
2023/01/09 15:23:32;;;;;;;;;;;;;;;;;;5095016;28;20430;-76
2023/01/09 15:25:58;;;;;;;;;;;;;;;;;;5095177;28;19973;-76
2023/01/09 15:28:24;;;;;;;;;;;;;;;;;;5095010;28;19978;-76
2023/01/09 15:30:50;;;;;;;;;;;;;;;;;;5093664;28;20331;-76
2023/01/09 15:33:16;;;;;;;;;;;;;;;;;;5094860;28;19908;-77
2023/01/09 15:35:42;;;;;;;;;;;;;;;;;;5094534;28;19924;-76
2023/01/09 15:38:07;;;;;;;;;;;;;;;;;;5095045;28;19908;-76
2023/01/09 15:40:33;;;;;;;;;;;;;;;;;;5094717;28;19954;-76
2023/01/09 15:43:00;;;;;;;;;;;;;;;;;;5094698;28;19908;-76
2023/01/09 15:45:26;;;;;;;;;;;;;;;;;;5094625;28;20416;-76
2023/01/09 15:47:52;;;;;;;;;;;;;;;;;;5093315;28;19955;-76
2023/01/09 15:50:17;;;;;;;;;;;;;;;;;;5094570;28;19915;-76
2023/01/09 15:52:43;;;;;;;;;;;;;;;;;;5094453;28;19943;-77
2023/01/09 15:55:09;;;;;;;;;;;;;;;;;;5094423;28;20399;-77
2023/01/09 15:57:35;;;;;;;;;;;;;;;;;;5094412;28;19916;-76
2023/01/09 16:00:01;;;;;;;;;;;;;;;;;;5094414;28;19908;-77
2023/01/09 16:05:12;;;;;;;;;;;;;;;;;;5094042;28;20008;-76
2023/01/09 16:07:38;;;;;;;;;;;;;;;;;;5094251;28;19908;-77
2023/01/09 16:10:04;;;;;;;;;;;;;;;;;;5092926;28;19915;-77
2023/01/09 16:12:30;;;;;;;;;;;;;;;;;;5094203;28;19946;-77
2023/01/09 16:14:56;;;;;;;;;;;;;;;;;;5094169;28;19908;-77
2023/01/09 16:17:25;;;;;;;;;;;;;;;;;;5094181;28;19920;-76
2023/01/09 16:19:51;;;;;;;;;;;;;;;;;;5094166;28;19908;-76
2023/01/09 16:22:17;;;;;;;;;;;;;;;;;;5092633;28;20004;-77
2023/01/09 16:24:43;;;;;;;;;;;;;;;;;;5094006;28;19915;-76
2023/01/09 16:27:10;;;;;;;;;;;;;;;;;;5092256;28;19908;-76
2023/01/09 16:29:35;;;;;;;;;;;;;;;;;;5094081;28;19912;-76
2023/01/09 16:32:02;;;;;;;;;;;;;;;;;;5093877;28;20057;-76
2023/01/09 16:34:28;;;;;;;;;;;;;;;;;;5093636;28;19908;-77
2023/01/09 16:36:55;;;;;;;;;;;;;;;;;;5093270;28;20259;-77
2023/01/09 16:39:24;;;;;;;;;;;;;;;;;;5093972;28;19914;-77
2023/01/09 16:44:34;;;;;;;;;;;;;;;;;;5093507;28;19958;-76
2023/01/09 16:47:00;;;;;;;;;;;;;;;;;;5094147;28;20280;-77
2023/01/09 16:49:27;;;;;;;;;;;;;;;;;;5093758;28;20425;-76
2023/01/09 16:51:53;;;;;;;;;;;;;;;;;;5093806;28;19957;-76
2023/01/09 16:54:19;;;;;;;;;;;;;;;;;;5093580;28;19908;-76
2023/01/09 16:56:45;;;;;;;;;;;;;;;;;;5093582;28;20325;-76
2023/01/09 16:59:11;;;;;;;;;;;;;;;;;;5093605;28;20364;-75